Latest Weather Observations for Pearce

IDW60901

Issued at 6:31 pm WST Sunday 10 May 2026 (issued every 10 minutes, with the page automatically refreshed every 10 minutes)

About weather observations | Map of Perth area stations | Latest observations for Perth area | Other Formats
Station Details ID: 009053 Name: PEARCE RAAF Lat: -31.67 Lon: 116.02 Height: 40.0 m
Data from the previous 72 hours. | See also: Recent months at Pearce
Date/Time
WST
Temp
°C
App
Temp
°C
Dew
Point
°C
Rel
Hum
%
Delta-T
°C
Wind Press
QNH
hPa
Press
MSL
hPa
Rain since
9am
mm
Dir  Spd
km/h
Gust
km/h
Spd
kts
Gust
kts
10/06:30pm 20.6 16.8 2.0 29 8.6 ENE 11 17 6 9 1023.1 1023.0 0.0
10/06:00pm 21.4 17.6 1.7 27 9.1 ENE 11 15 6 8 1022.8 1022.7 0.0
10/05:30pm 22.6 18.8 1.6 25 9.8 NE 11 15 6 8 1022.6 1022.5 0.0
10/05:00pm 23.7 19.5 1.4 23 10.4 NE 13 20 7 11 1022.5 1022.4 0.0
10/04:30pm 24.3 18.9 1.2 22 10.8 NNE 19 22 10 12 1022.4 1022.3 0.0
10/04:00pm 24.8 19.9 1.7 22 10.9 NE 17 24 9 13 1022.4 1022.3 0.0
10/03:30pm 25.0 21.3 2.4 23 10.9 ENE 11 20 6 11 1022.5 1022.4 0.0
10/03:00pm 25.0 21.6 1.8 22 11.0 NE 9 17 5 9 1022.4 1022.3 0.0
10/02:30pm 24.8 20.7 2.3 23 10.8 NE 13 24 7 13 1022.7 1022.6 0.0
10/02:00pm 24.3 20.3 3.0 25 10.3 ENE 13 24 7 13 1023.0 1022.9 0.0
10/01:30pm 23.6 18.2 2.4 25 10.1 N 20 30 11 16 1023.3 1023.2 0.0
10/01:00pm 24.0 19.3 3.3 26 10.0 N 17 24 9 13 1023.6 1023.5 0.0
10/12:30pm 24.2 19.6 3.5 26 10.1 NE 17 26 9 14 1024.1 1024.0 0.0
10/12:00pm 23.2 18.0 3.7 28 9.5 NNE 20 28 11 15 1024.6 1024.5 0.0
10/11:30am 23.0 16.7 3.5 28 9.5 N 26 33 14 18 1024.9 1024.8 0.0
10/11:00am 21.5 16.4 4.1 32 8.4 NE 20 28 11 15 1025.4 1025.3 0.0
10/10:30am 20.9 14.7 4.5 34 8.0 NNE 26 35 14 19 1025.8 1025.7 0.0
10/10:00am 19.9 14.6 4.8 37 7.3 NNE 22 33 12 18 1026.2 1026.1 0.0
10/09:30am 18.5 14.5 5.0 41 6.5 NNE 15 30 8 16 1026.3 1026.2 0.0
10/09:00am 17.2 12.9 5.2 45 5.7 NNE 17 24 9 13 1026.3 1026.2 0.0
10/08:30am 16.2 11.5 5.2 48 5.2 NE 19 32 10 17 1026.2 1026.1 0.0
10/08:00am 15.2 10.9 5.1 51 4.7 NNE 17 28 9 15 1026.3 1026.2 0.0
10/07:30am 14.5 9.2 5.0 53 4.5 ENE 22 35 12 19 1026.0 1025.9 0.0
10/07:00am 13.9 9.1 4.8 54 4.2 NE 19 28 10 15 1025.9 1025.8 0.0
10/06:30am 14.2 9.2 4.8 53 4.4 ENE 20 30 11 16 1025.8 1025.7 0.0
10/06:00am 14.3 9.5 4.6 52 4.5 ENE 19 28 10 15 1025.5 1025.4 0.0
10/05:30am 14.9 10.5 4.6 50 4.8 NE 17 28 9 15 1025.4 1025.3 0.0
10/05:00am 15.0 10.9 4.4 49 4.9 ENE 15 22 8 12 1025.3 1025.2 0.0
10/04:30am 15.3 10.8 4.1 47 5.2 ENE 17 28 9 15 1024.8 1024.7 0.0
10/04:00am 15.2 10.7 4.0 47 5.1 ENE 17 28 9 15 1024.8 1024.7 0.0
10/03:30am 15.0 10.7 3.5 46 5.2 ENE 15 22 8 12 1024.7 1024.6 0.0
10/03:00am 15.2 10.5 3.4 45 5.3 ENE 17 24 9 13 1024.8 1024.7 0.0
10/02:30am 15.7 10.5 3.5 44 5.6 ENE 20 28 11 15 1024.6 1024.5 0.0
10/02:00am 16.0 10.8 3.4 43 5.7 ENE 20 32 11 17 1024.9 1024.8 0.0
10/01:30am 15.9 11.6 3.0 42 5.9 ENE 15 22 8 12 1024.9 1024.8 0.0
10/01:00am 15.6 11.6 2.7 42 5.8 ENE 13 17 7 9 1024.9 1024.8 0.0
10/12:30am 15.8 12.1 2.6 41 5.9 ENE 11 19 6 10 1024.9 1024.8 0.0
10/12:00am 13.7 10.9 2.9 48 4.8 E 7 11 4 6 1025.2 1025.1 0.0
 
Date/Time
WST
Temp
°C
App
Temp
°C
Dew
Point
°C
Rel
Hum
%
Delta-T
°C
Wind Press
QNH
hPa
Press
MSL
hPa
Rain since
9am
mm
Dir  Spd
km/h
Gust
km/h
Spd
kts
Gust
kts
09/11:30pm 13.6 10.7 2.5 47 4.9 ENE 7 11 4 6 1025.3 1025.2 0.0
09/11:00pm 15.8 12.3 1.5 38 6.3 NE 9 13 5 7 1025.4 1025.3 0.0
09/10:30pm 16.1 12.3 1.8 38 6.3 NE 11 13 6 7 1025.5 1025.4 0.0
09/10:00pm 16.3 12.8 1.2 36 6.6 NE 9 13 5 7 1025.5 1025.4 0.0
09/09:30pm 16.5 13.5 1.0 35 6.8 NNE 6 9 3 5 1025.5 1025.4 0.0
09/09:00pm 16.1 12.9 1.0 36 6.6 NNE 7 9 4 5 1025.3 1025.2 0.0
09/08:30pm 17.0 13.3 0.2 32 7.3 NNE 9 11 5 6 1025.2 1025.1 0.0
09/08:00pm 17.6 13.6 0.3 31 7.5 ENE 11 15 6 8 1025.0 1024.9 0.0
09/07:30pm 18.0 13.6 0.2 30 7.8 E 13 15 7 8 1025.0 1024.9 0.0
09/07:00pm 18.6 14.2 0.2 29 8.0 E 13 17 7 9 1024.8 1024.7 0.0
09/06:30pm 18.7 14.2 -0.2 28 8.2 E 13 17 7 9 1024.8 1024.7 0.0
09/06:00pm 20.0 16.3 -0.1 26 8.8 E 9 13 5 7 1024.5 1024.4 0.0
09/05:30pm 21.6 17.9 0.2 24 9.6 E 9 11 5 6 1024.4 1024.3 0.0
09/05:00pm 22.9 18.1 0.1 22 10.3 E 15 19 8 10 1024.2 1024.1 0.0
09/04:30pm 23.6 19.1 0.0 21 10.8 ENE 13 20 7 11 1024.1 1024.0 0.0
09/04:00pm 24.2 19.7 -0.2 20 11.1 NE 13 19 7 10 1024.1 1024.0 0.0
09/03:30pm 24.0 18.6 -1.0 19 11.2 ENE 17 26 9 14 1023.9 1023.8 0.0
09/03:00pm 24.0 18.3 0.4 21 10.8 E 20 30 11 16 1023.5 1023.4 0.0
09/02:30pm 24.2 19.3 1.8 23 10.6 ENE 17 28 9 15 1023.5 1023.4 0.0
09/02:00pm 23.6 18.8 2.4 25 10.1 E 17 26 9 14 1023.6 1023.5 0.0
09/01:30pm 23.6 18.3 1.9 24 10.3 ENE 19 30 10 16 1023.8 1023.7 0.0
09/01:00pm 23.2 19.4 3.7 28 9.5 NE 13 20 7 11 1024.4 1024.3 0.0
09/12:30pm 22.3 16.8 3.9 30 8.9 ENE 22 32 12 17 1025.1 1025.0 0.0
09/12:00pm 22.2 17.1 3.3 29 9.0 NE 19 28 10 15 1025.6 1025.5 0.0
09/11:30am 21.3 17.6 4.4 33 8.2 NE 13 19 7 10 1026.5 1026.4 0.0
09/11:00am 20.1 15.1 3.8 34 7.7 NE 19 30 10 16 1027.0 1026.9 0.0
09/10:30am 19.8 14.9 4.3 36 7.5 NNE 19 30 10 16 1027.4 1027.4 0.0
09/10:00am 18.4 13.5 4.2 39 6.7 NE 19 35 10 19 1027.5 1027.5 0.0
09/09:30am 17.2 11.0 4.5 43 6.0 NE 26 35 14 19 1027.8 1027.8 0.0
09/09:00am 16.4 10.7 4.8 46 5.5 NE 24 35 13 19 1027.9 1027.9 0.0
09/08:30am 15.5 9.7 4.6 48 5.1 ENE 24 39 13 21 1027.7 1027.7 0.0
09/08:00am 14.5 8.3 4.5 51 4.6 ENE 26 43 14 23 1027.5 1027.5 0.0
09/07:30am 14.2 7.7 4.5 52 4.5 ENE 28 41 15 22 1027.2 1027.1 0.0
09/07:00am 14.4 7.8 4.4 51 4.6 ENE 28 37 15 20 1027.1 1027.0 0.0
09/06:30am 13.7 7.9 4.3 53 4.3 ENE 24 37 13 20 1027.1 1027.0 0.0
09/06:00am 13.7 8.3 4.3 53 4.3 NE 22 30 12 16 1026.9 1026.8 0.0
09/05:30am 13.9 8.8 3.9 51 4.6 NE 20 37 11 20 1026.9 1026.8 0.0
09/05:00am 14.2 8.7 3.9 50 4.7 ENE 22 43 12 23 1026.2 1026.1 0.0
09/04:30am 14.5 9.0 3.9 49 4.9 NE 22 37 12 20 1026.3 1026.2 0.0
09/04:00am 15.0 9.5 3.8 47 5.1 NE 22 37 12 20 1026.3 1026.2 0.0
09/03:30am 15.4 9.9 3.9 46 5.3 NE 22 33 12 18 1026.2 1026.1 0.0
09/03:00am 15.6 10.0 3.7 45 5.4 NE 22 37 12 20 1026.0 1025.9 0.0
09/02:30am 15.6 9.7 3.7 45 5.5 ENE 24 43 13 23 1025.9 1025.8 0.0
09/02:00am 15.9 9.2 3.7 44 5.6 ENE 28 43 15 23 1025.9 1025.8 0.0
09/01:30am 16.2 9.5 3.6 43 5.8 ENE 28 41 15 22 1025.9 1025.8 0.0
09/01:00am 16.4 11.4 3.5 42 5.9 ENE 19 28 10 15 1026.2 1026.1 0.0
09/12:30am 16.8 12.1 3.1 40 6.3 NE 17 28 9 15 1026.3 1026.2 0.0
09/12:00am 17.6 12.3 2.8 37 6.8 ENE 20 39 11 21 1026.2 1026.1 0.0
 
Date/Time
WST
Temp
°C
App
Temp
°C
Dew
Point
°C
Rel
Hum
%
Delta-T
°C
Wind Press
QNH
hPa
Press
MSL
hPa
Rain since
9am
mm
Dir  Spd
km/h
Gust
km/h
Spd
kts
Gust
kts
08/11:30pm 18.4 13.0 2.3 34 7.4 ENE 20 37 11 20 1026.0 1025.9 0.0
08/11:00pm 18.5 13.7 2.4 34 7.3 ENE 17 30 9 16 1026.1 1026.0 0.0
08/10:30pm 18.7 14.5 1.7 32 7.7 ENE 13 32 7 17 1026.2 1026.1 0.0
08/10:00pm 18.8 14.6 1.8 32 7.7 NE 13 22 7 12 1026.2 1026.1 0.0
08/09:30pm 18.4 15.6 3.1 36 7.1 NW 7 13 4 7 1026.3 1026.2 0.0
08/09:00pm 18.8 15.0 3.8 37 7.1 ENE 13 24 7 13 1026.2 1026.1 0.0
08/08:30pm 18.8 16.3 4.9 40 6.7 ENE 7 13 4 7 1026.2 1026.1 0.0
08/08:00pm 18.8 15.9 4.9 40 6.7 E 9 17 5 9 1026.1 1026.0 0.0
08/07:30pm 19.2 16.3 4.9 39 6.9 ESE 9 15 5 8 1026.1 1026.0 0.0
08/07:00pm 19.5 16.6 4.8 38 7.1 E 9 15 5 8 1026.1 1026.0 0.0
08/06:30pm 20.1 17.3 5.0 37 7.4 E 9 15 5 8 1026.0 1025.9 0.0
08/06:00pm 20.8 16.9 5.2 36 7.7 E 15 26 8 14 1025.9 1025.8 0.0
08/05:30pm 21.4 17.1 5.3 35 8.0 E 17 28 9 15 1025.6 1025.5 0.0
08/05:00pm 22.4 17.6 4.9 32 8.6 E 19 30 10 16 1025.4 1025.3 0.0
08/04:30pm 22.9 18.0 4.9 31 9.0 E 20 30 11 16 1025.2 1025.1 0.0
08/04:00pm 23.5 18.2 4.9 30 9.2 E 22 33 12 18 1025.4 1025.3 0.0
08/03:30pm 23.5 18.6 4.9 30 9.3 E 20 33 11 18 1025.1 1025.0 0.0
08/03:00pm 23.5 18.8 5.9 32 8.9 E 20 32 11 17 1025.1 1025.0 0.0
08/02:30pm 23.2 17.7 6.1 33 8.7 ENE 24 35 13 19 1025.4 1025.3 0.0
08/02:00pm 23.2 18.6 5.6 32 8.8 ENE 19 30 10 16 1025.8 1025.7 0.0
08/01:30pm 23.0 18.3 5.9 33 8.7 E 20 30 11 16 1026.1 1026.0 0.0
08/01:00pm 22.7 18.1 6.5 35 8.2 ENE 20 32 11 17 1026.5 1026.4 0.0
08/12:30pm 22.0 17.6 7.4 39 7.6 NE 20 32 11 17 1026.9 1026.8 0.0
08/12:00pm 22.1 17.3 7.5 39 7.5 NE 22 35 12 19 1027.5 1027.5 0.0
08/11:30am 21.4 17.2 7.6 41 7.2 NE 19 30 10 16 1028.2 1028.2 0.0
08/11:00am 20.0 15.4 8.0 46 6.2 NE 22 33 12 18 1028.7 1028.7 0.0
08/10:30am 19.1 13.3 7.8 48 5.8 NE 28 43 15 23 1029.1 1029.1 0.0
08/10:14am 19.3 14.6 7.7 47 5.9 NE 22 41 12 22 1029.1 1029.1 0.0
08/10:00am 18.8 15.5 7.9 49 5.5 ENE 15 22 8 12 1029.3 1029.3 0.0
08/09:30am 17.5 13.3 8.1 54 4.8 NE 20 32 11 17 1029.7 1029.7 0.0
08/09:00am 16.8 13.3 7.4 54 4.7 NE 15 24 8 13 1030.0 1030.0 0.0
08/08:30am 16.1 12.2 7.1 55 4.5 NE 17 28 9 15 1030.1 1030.1 0.0
08/08:00am 15.3 11.8 7.1 58 4.0 NE 15 19 8 10 1029.9 1029.9 0.0
08/07:30am 14.5 10.9 6.8 60 3.8 NE 15 22 8 12 1029.6 1029.6 0.0
08/07:00am 13.8 10.5 6.4 61 3.5 NE 13 19 7 10 1029.3 1029.3 0.0
08/06:30am 14.4 11.1 6.5 59 3.8 NE 13 20 7 11 1029.1 1029.1 0.0
08/06:00am 14.5 11.6 6.3 58 3.9 NE 11 20 6 11 1029.0 1029.0 0.0
08/05:30am 14.7 11.4 6.3 57 4.1 NE 13 22 7 12 1029.1 1029.1 0.0
08/05:00am 15.2 11.2 6.5 56 4.2 NE 17 28 9 15 1028.9 1028.9 0.0
08/04:30am 15.1 11.4 6.4 56 4.2 NNE 15 22 8 12 1028.8 1028.8 0.0
08/04:00am 15.6 12.6 6.1 53 4.6 NE 11 20 6 11 1028.7 1028.7 0.0
08/03:30am 16.0 12.3 6.4 53 4.7 NNE 15 24 8 13 1028.6 1028.6 0.0
08/03:00am 16.1 12.4 6.3 52 4.7 NE 15 24 8 13 1028.5 1028.5 0.0
08/02:30am 16.4 12.7 6.2 51 5.0 NE 15 26 8 14 1028.4 1028.4 0.0
08/02:00am 16.8 13.9 6.3 50 5.1 ENE 11 20 6 11 1028.3 1028.3 0.0
08/01:30am 16.8 14.2 6.0 49 5.3 NE 9 19 5 10 1028.3 1028.3 0.0
08/01:00am 17.2 13.8 6.1 48 5.4 ENE 13 24 7 13 1028.3 1028.3 0.0
08/12:30am 17.3 14.3 5.9 47 5.6 ENE 11 19 6 10 1028.4 1028.4 0.0
08/12:00am 17.7 14.3 5.9 46 5.7 ENE 13 24 7 13 1028.4 1028.4 0.0
 
Date/Time
WST
Temp
°C
App
Temp
°C
Dew
Point
°C
Rel
Hum
%
Delta-T
°C
Wind Press
QNH
hPa
Press
MSL
hPa
Rain since
9am
mm
Dir  Spd
km/h
Gust
km/h
Spd
kts
Gust
kts
07/11:30pm 17.7 15.0 5.6 45 5.9 E 9 15 5 8 1028.2 1028.2 0.0
07/11:00pm 16.7 14.5 5.3 47 5.4 SW 6 9 3 5 1028.1 1028.1 0.0
07/10:30pm 17.7 15.3 5.3 44 6.0 ESE 7 13 4 7 1028.1 1028.1 0.0
07/10:00pm 17.5 15.6 5.1 44 5.9 E 4 11 2 6 1028.1 1028.1 0.0
07/09:30pm 18.4 15.2 4.9 41 6.5 E 11 19 6 10 1027.8 1027.8 0.0
07/09:00pm 18.4 15.9 4.9 41 6.5 ESE 7 13 4 7 1027.7 1027.7 0.0
07/08:30pm 18.3 15.0 4.8 41 6.5 ESE 11 22 6 12 1027.5 1027.5 0.0
07/08:00pm 18.6 14.3 5.1 41 6.5 SE 17 22 9 12 1027.4 1027.4 0.0
07/07:30pm 18.9 14.5 4.7 39 6.8 SE 17 24 9 13 1027.4 1027.4 0.0
07/07:00pm 19.4 16.2 5.1 39 6.9 ESE 11 17 6 9 1027.4 1027.4 0.0

Latest Capital City Observations: Canberra | Sydney | Melbourne | Brisbane | Adelaide | Perth | Hobart | Darwin

Other formats

Comma delimited format used in spreadsheet applications
http://www.bom.gov.au/fwo/IDW60901/IDW60901.94612.axf

JavaScript Object Notation format (JSON) in row-major order
http://www.bom.gov.au/fwo/IDW60901/IDW60901.94612.json

Data quality

Most of these data are generated automatically and are frequently updated. Quality checks on data are not normally performed. It is possible for incorrect values to appear. Refer to information at About Latest Weather Observations and please check the disclaimer before using these data.